Time;durP1;ratioP1;P1;durP2;ratioP2;P2;SDS_P1;SDS_P2;PMS_P1;PMS_P2;Temp;Humidity;BMP_temperature;BMP_pressure;BME280_temperature;BME280_humidity;BME280_pressure;Samples;Min_cycle;Max_cycle;Signal;HPM_P1;HPM_P2
2023/07/25 00:02:26;;;;;;;6.37;5.90;;;15.60;83.10;;;;;;6230613;28;20235;-85
2023/07/25 00:05:29;;;;;;;5.23;4.93;;;15.60;83.00;;;;;;6253802;28;20238;-83
2023/07/25 00:08:32;;;;;;;6.03;5.40;;;15.60;82.60;;;;;;6247294;28;20623;-82
2023/07/25 00:11:35;;;;;;;5.13;4.93;;;15.50;82.60;;;;;;6234371;28;20743;-83
2023/07/25 00:14:38;;;;;;;5.00;4.80;;;15.50;82.70;;;;;;6248596;28;20245;-80
2023/07/25 00:17:43;;;;;;;5.20;4.80;;;15.50;82.50;;;;;;6238997;28;20249;-85
2023/07/25 00:20:46;;;;;;;4.43;4.33;;;15.60;82.40;;;;;;6241823;28;20315;-79
2023/07/25 00:23:50;;;;;;;7.60;4.77;;;15.60;82.30;;;;;;6231911;28;20231;-81
2023/07/25 00:26:53;;;;;;;4.93;4.53;;;15.50;81.80;;;;;;6252877;28;20286;-84
2023/07/25 00:29:56;;;;;;;5.00;4.60;;;15.50;81.50;;;;;;6256316;28;20234;-83
2023/07/25 00:33:00;;;;;;;4.93;4.67;;;15.50;81.50;;;;;;6250724;28;20238;-84
2023/07/25 00:36:04;;;;;;;4.73;4.53;;;15.50;81.50;;;;;;6241382;28;20317;-79
2023/07/25 00:39:07;;;;;;;4.47;4.27;;;15.50;81.40;;;;;;6243103;28;20227;-82
2023/07/25 00:42:10;;;;;;;5.03;4.70;;;15.40;81.50;;;;;;6227806;28;20640;-83
2023/07/25 00:45:13;;;;;;;4.87;4.67;;;15.40;81.70;;;;;;6236886;28;20239;-84
2023/07/25 00:48:22;;;;;;;5.17;4.77;;;15.40;81.70;;;;;;6245036;28;20555;-83
2023/07/25 00:51:28;;;;;;;5.50;5.10;;;15.30;81.80;;;;;;6231555;28;20243;-83
2023/07/25 00:54:32;;;;;;;5.07;4.70;;;15.30;81.70;;;;;;6231365;28;20255;-84
2023/07/25 00:57:36;;;;;;;5.57;5.27;;;15.40;81.70;;;;;;6252977;28;20234;-85
2023/07/25 01:00:39;;;;;;;5.10;4.80;;;15.30;81.70;;;;;;6240222;28;20731;-81
2023/07/25 01:03:43;;;;;;;5.00;4.80;;;15.30;81.80;;;;;;6256482;28;20250;-83
2023/07/25 01:06:48;;;;;;;5.70;5.27;;;15.30;81.70;;;;;;6236412;28;20238;-81
2023/07/25 01:09:51;;;;;;;5.43;5.03;;;15.30;81.60;;;;;;6253618;28;20319;-82
2023/07/25 01:12:54;;;;;;;6.17;5.77;;;15.30;81.50;;;;;;6250377;28;20264;-81
2023/07/25 01:15:57;;;;;;;5.57;5.13;;;15.30;81.50;;;;;;6238372;28;20327;-82
2023/07/25 01:19:02;;;;;;;5.80;5.40;;;15.30;81.50;;;;;;6250523;28;20759;-80
2023/07/25 01:22:06;;;;;;;5.40;5.20;;;15.30;81.50;;;;;;6242155;28;20242;-83
2023/07/25 01:25:11;;;;;;;5.83;5.30;;;15.30;81.50;;;;;;6250708;28;20230;-82
2023/07/25 01:28:14;;;;;;;5.73;5.27;;;15.20;81.60;;;;;;6243539;28;20267;-83
2023/07/25 01:31:17;;;;;;;7.10;6.47;;;15.20;81.50;;;;;;6266288;28;20229;-84
2023/07/25 01:34:20;;;;;;;5.90;5.50;;;15.20;81.50;;;;;;6260871;28;20238;-82
2023/07/25 01:37:23;;;;;;;6.13;5.63;;;15.20;81.50;;;;;;6245012;28;20274;-83
2023/07/25 01:40:28;;;;;;;7.03;6.43;;;15.20;81.40;;;;;;6266334;28;20315;-84
2023/07/25 01:43:31;;;;;;;6.20;5.80;;;15.10;81.50;;;;;;6223682;28;20247;-84
2023/07/25 01:46:34;;;;;;;6.33;5.93;;;15.00;81.50;;;;;;6243549;28;20239;-82
2023/07/25 01:49:37;;;;;;;6.60;6.10;;;15.10;81.50;;;;;;6243363;28;20238;-82
2023/07/25 01:52:41;;;;;;;6.60;6.07;;;15.10;81.60;;;;;;6236725;28;20257;-81
2023/07/25 01:55:45;;;;;;;8.17;6.33;;;15.10;81.60;;;;;;6258968;28;20226;-83
2023/07/25 01:58:48;;;;;;;6.37;6.03;;;15.20;81.60;;;;;;6235479;28;20423;-82
2023/07/25 02:01:56;;;;;;;7.17;6.77;;;15.20;81.70;;;;;;6256201;28;20249;-83
2023/07/25 02:05:00;;;;;;;6.80;6.23;;;15.30;81.60;;;;;;6248018;28;20238;-80
2023/07/25 02:08:07;;;;;;;7.07;6.67;;;15.30;81.40;;;;;;6249302;28;20238;-83
2023/07/25 02:11:11;;;;;;;8.87;6.73;;;15.30;81.20;;;;;;6238621;28;20241;-79
2023/07/25 02:14:14;;;;;;;8.07;7.33;;;15.40;81.10;;;;;;6256357;28;20237;-83
2023/07/25 02:17:19;;;;;;;7.70;6.93;;;15.40;80.90;;;;;;6250808;28;20254;-84
2023/07/25 02:20:25;;;;;;;8.70;7.90;;;15.40;80.80;;;;;;6251313;28;20778;-82
2023/07/25 02:23:29;;;;;;;8.17;7.40;;;15.40;80.70;;;;;;6230559;28;20243;-84
2023/07/25 02:26:38;;;;;;;8.47;7.93;;;15.40;80.70;;;;;;6217844;28;20235;-83
2023/07/25 02:29:41;;;;;;;8.03;7.53;;;15.30;80.60;;;;;;6242839;28;20276;-83
2023/07/25 02:32:44;;;;;;;10.53;8.17;;;15.30;80.50;;;;;;6250779;28;20297;-84
2023/07/25 02:35:47;;;;;;;8.17;7.57;;;15.30;80.40;;;;;;6264097;28;20742;-81
2023/07/25 02:38:51;;;;;;;8.33;7.63;;;15.30;80.40;;;;;;6239123;28;20242;-83
2023/07/25 02:41:56;;;;;;;7.73;7.23;;;15.30;80.30;;;;;;6229455;28;20242;-81
2023/07/25 02:44:59;;;;;;;10.83;8.17;;;15.40;80.40;;;;;;6252768;28;20237;-83
2023/07/25 02:48:02;;;;;;;9.00;8.40;;;15.30;80.50;;;;;;6262812;28;20314;-83
2023/07/25 02:51:05;;;;;;;9.13;8.23;;;15.30;80.70;;;;;;6243757;28;20266;-85
2023/07/25 02:54:09;;;;;;;9.37;8.57;;;15.30;80.70;;;;;;6244638;28;20238;-85
2023/07/25 02:57:13;;;;;;;8.43;7.37;;;15.30;80.50;;;;;;6261197;28;20234;-82
2023/07/25 03:00:17;;;;;;;7.93;7.27;;;15.30;80.80;;;;;;6256663;28;20254;-81
2023/07/25 03:03:20;;;;;;;8.53;7.93;;;15.30;80.90;;;;;;6234506;28;20237;-84
2023/07/25 03:06:23;;;;;;;8.83;8.03;;;15.30;80.40;;;;;;6249219;28;20253;-83
2023/07/25 03:09:26;;;;;;;9.87;8.97;;;15.30;80.10;;;;;;6256176;28;20314;-81
2023/07/25 03:12:30;;;;;;;12.07;8.20;;;15.30;80.30;;;;;;6235820;28;20254;-82
2023/07/25 03:15:34;;;;;;;9.77;8.87;;;15.30;80.10;;;;;;6240296;28;20234;-82
2023/07/25 03:22:58;;;;;;;8.07;7.37;;;15.30;79.50;;;;;;6231777;28;20231;-82
2023/07/25 03:26:01;;;;;;;8.50;7.57;;;15.30;79.30;;;;;;6241240;28;20237;-82
2023/07/25 03:29:06;;;;;;;7.57;6.87;;;15.30;79.30;;;;;;6241166;28;20304;-83
2023/07/25 03:32:10;;;;;;;7.40;6.23;;;15.30;79.00;;;;;;6230916;28;20253;-80
2023/07/25 03:35:13;;;;;;;8.00;7.00;;;15.30;78.60;;;;;;6235674;28;20249;-80
2023/07/25 03:38:16;;;;;;;7.00;6.43;;;15.30;78.90;;;;;;6237289;28;20258;-82
2023/07/25 03:41:19;;;;;;;6.23;5.83;;;15.20;78.40;;;;;;6233196;28;20243;-81
2023/07/25 03:44:23;;;;;;;7.63;6.83;;;15.30;78.30;;;;;;6240373;28;20717;-81
2023/07/25 03:47:26;;;;;;;6.60;6.20;;;15.30;78.20;;;;;;6242815;28;20235;-79
2023/07/25 03:50:30;;;;;;;6.53;6.10;;;15.30;77.80;;;;;;6232765;28;20246;-80
2023/07/25 03:53:34;;;;;;;7.10;6.47;;;15.20;77.80;;;;;;6227534;28;20385;-81
2023/07/25 03:56:37;;;;;;;6.97;6.43;;;15.20;78.30;;;;;;6212622;28;20231;-81
2023/07/25 03:59:42;;;;;;;6.50;6.20;;;15.20;78.20;;;;;;6237862;28;20235;-81
2023/07/25 04:02:45;;;;;;;8.00;7.07;;;15.20;78.30;;;;;;6231512;28;20239;-81
2023/07/25 04:06:00;;;;;;;8.60;6.73;;;15.20;78.20;;;;;;6225060;28;20239;-80
2023/07/25 04:09:03;;;;;;;8.37;6.53;;;15.20;78.10;;;;;;6224367;28;20251;-82
2023/07/25 04:12:07;;;;;;;5.90;5.37;;;15.30;78.20;;;;;;6230041;28;20242;-81
2023/07/25 04:15:12;;;;;;;6.47;5.80;;;15.30;77.60;;;;;;6233087;28;20340;-81
2023/07/25 04:18:15;;;;;;;6.47;5.70;;;15.30;77.60;;;;;;6228893;28;20308;-81
2023/07/25 04:21:18;;;;;;;5.93;5.40;;;15.20;77.50;;;;;;6225832;28;20281;-81
2023/07/25 04:24:22;;;;;;;6.47;5.97;;;15.20;77.50;;;;;;6232347;28;21070;-81
2023/07/25 04:27:25;;;;;;;7.93;6.37;;;15.20;77.50;;;;;;6246530;28;20230;-80
2023/07/25 04:30:29;;;;;;;7.23;6.60;;;15.20;77.70;;;;;;6236589;28;20400;-81
2023/07/25 04:33:32;;;;;;;6.83;6.33;;;15.20;77.40;;;;;;6241405;28;20712;-80
2023/07/25 04:36:36;;;;;;;7.70;5.93;;;15.20;77.60;;;;;;6251608;28;20262;-79
2023/07/25 04:39:39;;;;;;;6.73;6.33;;;15.10;77.60;;;;;;6254505;28;20274;-81
2023/07/25 04:42:42;;;;;;;7.10;6.40;;;15.20;77.70;;;;;;6254419;28;20294;-80
2023/07/25 04:45:47;;;;;;;6.33;5.73;;;15.20;77.80;;;;;;6256808;28;20270;-80
2023/07/25 04:48:58;;;;;;;6.83;5.83;;;15.20;77.80;;;;;;6246523;28;20911;-80
2023/07/25 04:52:01;;;;;;;6.37;5.87;;;15.30;77.90;;;;;;6250372;28;20243;-82
2023/07/25 04:55:06;;;;;;;5.67;5.17;;;15.40;77.70;;;;;;6241124;28;20238;-82
2023/07/25 04:58:09;;;;;;;8.77;6.13;;;15.50;77.50;;;;;;6240159;28;20439;-81
2023/07/25 05:01:14;;;;;;;5.77;5.30;;;15.50;77.20;;;;;;6233916;28;20253;-81
2023/07/25 05:04:17;;;;;;;6.40;5.63;;;15.60;77.20;;;;;;6233861;28;20325;-81
2023/07/25 05:07:20;;;;;;;5.50;5.07;;;15.50;77.20;;;;;;6233026;28;20242;-79
2023/07/25 05:10:23;;;;;;;5.33;4.90;;;15.60;77.10;;;;;;6245591;28;20899;-82
2023/07/25 05:13:26;;;;;;;7.10;5.37;;;15.60;76.80;;;;;;6241570;28;20646;-81
2023/07/25 05:16:31;;;;;;;10.77;5.90;;;15.50;76.60;;;;;;6253557;28;20843;-80
2023/07/25 05:19:34;;;;;;;5.93;5.17;;;15.50;76.90;;;;;;6233920;28;20245;-80
2023/07/25 05:22:37;;;;;;;5.93;5.03;;;15.50;76.00;;;;;;6241520;28;20335;-82
2023/07/25 05:25:40;;;;;;;5.90;5.37;;;15.50;76.70;;;;;;6235952;28;20314;-81
2023/07/25 05:28:44;;;;;;;8.77;5.13;;;15.60;76.50;;;;;;6240094;28;20239;-79
2023/07/25 05:31:49;;;;;;;9.40;5.60;;;15.60;76.40;;;;;;6230270;28;20236;-80
2023/07/25 05:34:52;;;;;;;7.27;4.83;;;15.60;76.20;;;;;;6226112;28;20242;-79
2023/07/25 05:37:55;;;;;;;5.33;4.93;;;15.60;76.40;;;;;;6246383;28;20234;-81
2023/07/25 05:40:58;;;;;;;5.77;5.20;;;15.60;76.20;;;;;;6240338;28;20242;-80
2023/07/25 05:44:01;;;;;;;6.80;4.60;;;15.70;76.00;;;;;;6248731;28;20318;-80
2023/07/25 05:47:06;;;;;;;8.40;4.73;;;15.80;75.90;;;;;;6237357;28;20246;-82
2023/07/25 05:50:10;;;;;;;4.33;3.93;;;16.00;75.40;;;;;;6243824;28;20369;-79
2023/07/25 05:53:13;;;;;;;4.80;3.80;;;16.00;73.10;;;;;;6240819;28;20312;-80
2023/07/25 05:56:16;;;;;;;3.83;3.63;;;16.00;71.40;;;;;;6245210;28;20296;-79
2023/07/25 05:59:20;;;;;;;3.40;3.20;;;16.00;71.90;;;;;;6252757;28;20250;-82
2023/07/25 06:02:25;;;;;;;4.67;3.57;;;16.50;70.90;;;;;;6236620;28;20234;-81
2023/07/25 06:05:28;;;;;;;3.80;3.53;;;16.80;70.30;;;;;;6255749;28;20823;-81
2023/07/25 06:08:31;;;;;;;6.47;4.07;;;16.90;69.90;;;;;;6252559;28;20243;-80
2023/07/25 06:11:35;;;;;;;4.00;3.53;;;16.80;70.20;;;;;;6235375;28;20325;-82
2023/07/25 06:14:38;;;;;;;3.93;3.70;;;16.70;70.80;;;;;;6253146;28;20230;-82
2023/07/25 06:17:43;;;;;;;3.97;3.50;;;16.70;71.10;;;;;;6247703;28;20239;-80
2023/07/25 06:20:48;;;;;;;3.73;3.33;;;16.70;71.00;;;;;;6234721;28;20969;-80
2023/07/25 06:23:51;;;;;;;4.10;3.70;;;16.70;70.70;;;;;;6234627;28;20298;-81
2023/07/25 06:26:54;;;;;;;3.60;3.30;;;16.90;68.80;;;;;;6230992;28;20864;-81
2023/07/25 06:29:57;;;;;;;3.37;2.97;;;17.20;69.20;;;;;;6242630;28;20332;-81
2023/07/25 06:33:02;;;;;;;5.47;3.10;;;17.30;67.80;;;;;;6218102;28;20772;-79
2023/07/25 06:36:05;;;;;;;3.37;3.07;;;17.50;67.20;;;;;;6233440;28;20298;-81
2023/07/25 06:39:08;;;;;;;3.40;3.10;;;17.50;66.80;;;;;;6229558;28;20313;-81
2023/07/25 06:42:12;;;;;;;4.97;3.53;;;17.60;67.60;;;;;;6230908;28;20242;-81
2023/07/25 06:45:15;;;;;;;5.33;3.70;;;17.80;67.20;;;;;;6246178;28;20316;-79
2023/07/25 06:48:20;;;;;;;5.80;3.80;;;17.80;67.90;;;;;;6234643;28;20230;-82
2023/07/25 06:51:23;;;;;;;6.80;4.20;;;17.70;67.50;;;;;;6233912;28;20871;-79
2023/07/25 06:54:26;;;;;;;4.43;4.03;;;17.60;67.70;;;;;;6230814;28;20289;-80
2023/07/25 06:57:29;;;;;;;4.53;4.17;;;17.50;68.10;;;;;;6243915;28;20322;-82
2023/07/25 07:00:37;;;;;;;4.57;4.17;;;17.50;68.00;;;;;;6234149;28;20741;-82
2023/07/25 07:03:41;;;;;;;4.13;3.50;;;17.50;68.50;;;;;;6243255;28;20238;-80
2023/07/25 07:06:45;;;;;;;6.30;3.53;;;17.80;68.20;;;;;;6235850;28;20249;-81
2023/07/25 07:09:48;;;;;;;4.27;3.20;;;18.40;66.90;;;;;;6234641;28;20736;-81
2023/07/25 07:12:53;;;;;;;6.50;3.50;;;18.80;64.80;;;;;;6238137;28;20413;-82
2023/07/25 07:15:57;;;;;;;3.67;3.33;;;19.00;64.50;;;;;;6239453;28;20231;-80
2023/07/25 07:19:01;;;;;;;3.90;3.33;;;19.00;63.60;;;;;;6245032;28;20326;-82
2023/07/25 07:22:05;;;;;;;3.63;3.33;;;19.00;63.90;;;;;;6227208;28;20313;-77
2023/07/25 07:25:09;;;;;;;3.90;3.60;;;19.00;64.20;;;;;;6229216;28;20351;-80
2023/07/25 07:28:12;;;;;;;4.00;3.30;;;18.90;64.20;;;;;;6226445;28;20226;-82
2023/07/25 07:31:21;;;;;;;5.83;3.93;;;18.70;64.90;;;;;;6227332;28;20283;-80
2023/07/25 07:34:26;;;;;;;3.17;2.97;;;18.50;65.60;;;;;;6256529;28;20234;-80
2023/07/25 07:37:29;;;;;;;5.47;3.13;;;18.70;64.30;;;;;;6267261;28;20237;-82
2023/07/25 07:40:36;;;;;;;3.60;3.03;;;18.70;64.20;;;;;;6256006;28;20294;-80
2023/07/25 07:43:39;;;;;;;6.73;2.87;;;18.70;64.50;;;;;;6263088;28;20257;-81
2023/07/25 07:46:42;;;;;;;3.47;2.97;;;19.00;63.40;;;;;;6273371;28;20862;-82
2023/07/25 07:49:46;;;;;;;7.17;3.03;;;18.90;63.50;;;;;;6256785;28;20233;-82
2023/07/25 07:52:50;;;;;;;5.17;2.80;;;19.10;63.70;;;;;;6254047;28;20231;-83
2023/07/25 07:55:53;;;;;;;3.30;2.90;;;19.10;63.00;;;;;;6253455;28;20265;-84
2023/07/25 07:58:56;;;;;;;3.30;3.00;;;18.90;63.30;;;;;;6262967;28;20329;-82
2023/07/25 08:01:59;;;;;;;5.50;3.13;;;18.80;63.90;;;;;;6272975;28;20332;-81
2023/07/25 08:05:04;;;;;;;2.90;2.70;;;18.70;63.70;;;;;;6273238;28;20242;-81
2023/07/25 08:08:08;;;;;;;3.93;3.33;;;18.60;62.10;;;;;;6271182;28;20245;-79
2023/07/25 08:11:12;;;;;;;3.57;3.30;;;18.50;62.10;;;;;;6266095;28;20230;-81
2023/07/25 08:14:15;;;;;;;5.43;2.97;;;18.60;62.30;;;;;;6259094;28;20250;-80
2023/07/25 08:17:19;;;;;;;3.43;3.13;;;18.30;63.50;;;;;;6276527;28;20320;-79
2023/07/25 08:20:23;;;;;;;3.07;2.87;;;18.50;62.40;;;;;;6277025;28;20245;-78
2023/07/25 08:23:27;;;;;;;3.00;2.80;;;18.60;62.90;;;;;;6273444;28;20275;-80
2023/07/25 08:26:30;;;;;;;2.87;2.47;;;18.60;62.10;;;;;;6258014;28;20843;-80
2023/07/25 08:29:33;;;;;;;5.50;2.60;;;18.60;61.30;;;;;;6260690;28;20230;-79
2023/07/25 08:32:36;;;;;;;3.83;2.67;;;18.60;61.10;;;;;;6274847;28;20241;-78
2023/07/25 08:35:41;;;;;;;3.73;2.77;;;18.70;61.60;;;;;;6257395;28;20859;-79
2023/07/25 08:38:45;;;;;;;5.13;2.60;;;18.90;60.90;;;;;;6267700;28;20242;-78
2023/07/25 08:41:53;;;;;;;3.40;3.10;;;18.90;60.80;;;;;;6259516;28;20237;-80
2023/07/25 08:44:57;;;;;;;6.83;2.53;;;19.20;61.10;;;;;;6243440;28;20241;-80
2023/07/25 08:48:04;;;;;;;4.33;2.60;;;19.40;59.80;;;;;;6247853;28;20303;-80
2023/07/25 08:51:14;;;;;;;2.70;2.60;;;19.40;60.00;;;;;;6261194;28;20747;-80
2023/07/25 08:54:26;;;;;;;3.00;2.40;;;19.20;61.00;;;;;;6265247;28;20360;-81
2023/07/25 08:57:30;;;;;;;2.67;2.57;;;19.50;59.80;;;;;;6253573;28;20824;-79
2023/07/25 09:00:35;;;;;;;3.00;2.47;;;19.50;59.70;;;;;;6258914;28;20753;-80
2023/07/25 09:03:39;;;;;;;3.80;2.73;;;19.70;58.00;;;;;;6260184;28;20236;-78
2023/07/25 09:06:43;;;;;;;3.10;2.90;;;20.00;57.90;;;;;;6266724;28;20313;-79
2023/07/25 09:09:47;;;;;;;2.80;2.60;;;20.20;57.10;;;;;;6252554;28;20617;-79
2023/07/25 09:12:50;;;;;;;3.63;2.57;;;20.30;57.80;;;;;;6259556;28;20241;-80
2023/07/25 09:15:53;;;;;;;2.67;2.47;;;20.30;57.00;;;;;;6252936;28;20245;-81
2023/07/25 09:18:56;;;;;;;3.27;2.43;;;20.50;56.90;;;;;;6267471;28;20235;-81
2023/07/25 09:22:00;;;;;;;3.33;2.53;;;20.60;57.00;;;;;;6266469;28;20241;-81
2023/07/25 09:25:09;;;;;;;5.67;2.97;;;20.60;58.00;;;;;;6265611;28;20249;-81
2023/07/25 09:28:12;;;;;;;4.33;2.80;;;20.40;57.90;;;;;;6260286;28;20315;-80
2023/07/25 09:31:15;;;;;;;2.80;2.60;;;20.00;58.30;;;;;;6232332;28;20269;-80
2023/07/25 09:34:23;;;;;;;2.50;2.40;;;20.30;58.60;;;;;;6258957;28;20234;-81
2023/07/25 09:37:29;;;;;;;2.40;2.20;;;20.50;56.60;;;;;;6256595;28;20233;-81
2023/07/25 09:40:38;;;;;;;3.63;2.27;;;20.60;56.00;;;;;;6267995;28;20763;-81
2023/07/25 09:43:41;;;;;;;2.40;2.20;;;20.50;56.90;;;;;;6277137;28;20225;-79
2023/07/25 09:46:52;;;;;;;3.23;2.70;;;20.60;56.90;;;;;;6249390;28;20292;-78
2023/07/25 09:50:00;;;;;;;3.07;2.80;;;20.70;55.90;;;;;;6256116;28;20245;-78
2023/07/25 09:53:10;;;;;;;3.20;2.90;;;20.90;55.90;;;;;;6269875;28;20254;-80
2023/07/25 09:56:13;;;;;;;3.53;2.83;;;21.10;55.50;;;;;;6253890;28;20762;-79
2023/07/25 09:59:16;;;;;;;3.07;2.77;;;21.40;56.80;;;;;;6264687;28;20242;-78
2023/07/25 10:02:20;;;;;;;3.20;2.60;;;21.70;55.10;;;;;;6258036;28;20249;-78
2023/07/25 10:05:24;;;;;;;2.73;2.57;;;21.60;56.30;;;;;;6256443;28;20234;-80
2023/07/25 10:08:29;;;;;;;3.40;2.60;;;21.60;54.00;;;;;;6261510;28;20233;-79
2023/07/25 10:11:33;;;;;;;2.90;2.70;;;21.30;55.70;;;;;;6249409;28;20730;-79
2023/07/25 10:14:38;;;;;;;2.73;2.50;;;21.30;55.80;;;;;;6253383;28;20276;-79
2023/07/25 10:17:41;;;;;;;3.47;2.57;;;21.00;55.50;;;;;;6277338;28;20249;-78
2023/07/25 10:20:44;;;;;;;3.30;2.80;;;21.10;55.50;;;;;;6233251;28;20313;-78
2023/07/25 10:23:53;;;;;;;2.40;2.20;;;20.70;55.60;;;;;;6250132;28;20308;-80
2023/07/25 10:26:57;;;;;;;4.37;2.87;;;20.80;56.00;;;;;;6249776;28;20241;-77
2023/07/25 10:30:02;;;;;;;2.57;2.47;;;20.70;56.10;;;;;;6248241;28;20332;-79
2023/07/25 10:33:07;;;;;;;3.00;2.80;;;20.40;56.20;;;;;;6261876;28;20245;-79
2023/07/25 10:36:22;;;;;;;3.00;2.80;;;20.50;56.90;;;;;;6271285;28;20322;-80
2023/07/25 10:39:27;;;;;;;2.70;2.57;;;20.70;55.70;;;;;;6249734;28;20239;-78
2023/07/25 10:42:43;;;;;;;2.90;2.70;;;20.90;55.60;;;;;;6239504;28;20235;-76
2023/07/25 10:46:07;;;;;;;2.97;2.60;;;21.30;56.40;;;;;;6235540;28;20897;-80
2023/07/25 10:49:15;;;;;;;3.37;2.90;;;21.40;55.30;;;;;;6225797;28;20731;-79
2023/07/25 10:52:42;;;;;;;2.70;2.57;;;21.10;54.30;;;;;;6229694;28;20289;-79
2023/07/25 10:56:09;;;;;;;2.60;2.33;;;20.80;55.60;;;;;;6232003;28;20348;-80
2023/07/25 10:59:13;;;;;;;3.70;3.40;;;21.00;55.30;;;;;;6226990;28;20228;-79
2023/07/25 11:02:29;;;;;;;3.50;3.20;;;21.00;55.50;;;;;;6235349;28;20250;-78
2023/07/25 11:05:32;;;;;;;2.63;2.40;;;21.30;55.90;;;;;;6236981;28;20235;-78
2023/07/25 11:08:35;;;;;;;3.10;3.00;;;21.90;55.00;;;;;;6228571;28;20289;-80
2023/07/25 11:11:45;;;;;;;3.13;2.80;;;21.90;54.60;;;;;;6242294;28;20242;-79
2023/07/25 11:14:48;;;;;;;3.00;2.73;;;21.80;54.10;;;;;;6221541;28;20322;-80
2023/07/25 11:17:51;;;;;;;2.83;2.73;;;21.70;54.80;;;;;;6246698;28;20246;-79
2023/07/25 11:20:59;;;;;;;3.20;3.00;;;21.40;54.30;;;;;;6230741;28;20685;-80
2023/07/25 11:24:07;;;;;;;3.27;2.77;;;21.10;54.40;;;;;;6243362;28;20242;-81
2023/07/25 11:27:11;;;;;;;4.83;3.47;;;21.00;54.60;;;;;;6233012;28;20727;-79
2023/07/25 11:30:16;;;;;;;2.93;2.70;;;21.10;54.80;;;;;;6234139;28;20593;-78
2023/07/25 11:33:20;;;;;;;4.57;3.20;;;21.00;55.40;;;;;;6230744;28;20333;-79
2023/07/25 11:36:23;;;;;;;3.43;3.13;;;21.40;55.70;;;;;;6227559;28;20235;-79
2023/07/25 11:39:26;;;;;;;2.80;2.70;;;22.00;55.00;;;;;;6231598;28;20230;-80
2023/07/25 11:42:32;;;;;;;2.80;2.37;;;22.40;54.10;;;;;;6234773;28;20323;-79
2023/07/25 11:45:36;;;;;;;2.80;2.70;;;22.70;52.90;;;;;;6249588;28;20242;-77
2023/07/25 11:48:39;;;;;;;3.77;2.53;;;22.80;51.40;;;;;;6236789;28;20231;-78
2023/07/25 11:51:43;;;;;;;2.60;2.50;;;22.70;50.50;;;;;;6234452;28;20238;-78
2023/07/25 11:54:46;;;;;;;2.57;2.47;;;22.50;51.40;;;;;;6241481;28;20258;-81
2023/07/25 11:57:51;;;;;;;2.83;2.60;;;21.70;52.50;;;;;;6233743;28;20325;-76
2023/07/25 12:00:55;;;;;;;3.23;3.00;;;21.50;52.30;;;;;;6243050;28;20270;-79
2023/07/25 12:04:00;;;;;;;2.77;2.60;;;21.50;51.90;;;;;;6238213;28;20230;-78
2023/07/25 12:07:03;;;;;;;3.33;3.13;;;21.60;51.40;;;;;;6231007;28;20715;-77
2023/07/25 12:10:07;;;;;;;3.03;2.90;;;21.70;52.80;;;;;;6236118;28;20284;-79
2023/07/25 12:13:12;;;;;;;2.70;2.60;;;21.90;51.90;;;;;;6230253;28;20723;-79
2023/07/25 12:16:25;;;;;;;3.30;2.47;;;21.70;53.30;;;;;;6249550;28;20376;-79
2023/07/25 12:19:32;;;;;;;3.13;2.77;;;21.90;51.30;;;;;;6239744;28;20231;-80
2023/07/25 12:22:35;;;;;;;2.63;2.53;;;22.00;52.30;;;;;;6236540;28;20247;-79
2023/07/25 12:25:38;;;;;;;3.00;2.90;;;22.00;51.40;;;;;;6248459;28;20237;-80
2023/07/25 12:28:45;;;;;;;2.33;2.30;;;22.10;50.20;;;;;;6237977;28;20238;-81
2023/07/25 12:31:49;;;;;;;2.40;2.33;;;22.10;50.50;;;;;;6231696;28;20239;-80
2023/07/25 12:34:52;;;;;;;2.47;2.37;;;22.50;50.20;;;;;;6232148;28;20279;-81
2023/07/25 12:37:57;;;;;;;4.70;2.77;;;22.40;49.70;;;;;;6240666;28;20301;-78
2023/07/25 12:41:00;;;;;;;2.80;2.70;;;22.50;49.30;;;;;;6243337;28;20857;-78
2023/07/25 12:44:05;;;;;;;5.30;2.70;;;22.90;49.20;;;;;;6239386;28;20233;-80
2023/07/25 12:47:08;;;;;;;4.37;3.00;;;23.10;49.20;;;;;;6255574;28;20617;-79
2023/07/25 12:50:12;;;;;;;4.73;3.00;;;22.90;50.20;;;;;;6248633;28;20230;-81
2023/07/25 12:53:15;;;;;;;2.70;2.60;;;23.00;50.60;;;;;;6259812;28;20258;-77
2023/07/25 12:56:18;;;;;;;4.07;3.00;;;22.90;49.60;;;;;;6232445;28;20230;-78
2023/07/25 12:59:23;;;;;;;4.00;2.50;;;22.60;50.20;;;;;;6242119;28;20234;-79
2023/07/25 13:02:26;;;;;;;4.30;2.90;;;22.10;50.90;;;;;;6247312;28;20273;-79
2023/07/25 13:05:29;;;;;;;2.67;2.47;;;22.10;50.70;;;;;;6240134;28;20234;-81
2023/07/25 13:08:33;;;;;;;3.33;2.47;;;21.70;50.80;;;;;;6241259;28;20626;-79
2023/07/25 13:11:36;;;;;;;3.17;2.47;;;21.70;51.10;;;;;;6238591;28;20243;-79
2023/07/25 13:14:40;;;;;;;2.57;2.47;;;21.70;51.00;;;;;;6236605;28;20243;-78
2023/07/25 13:17:43;;;;;;;3.20;2.47;;;21.90;51.30;;;;;;6230070;28;20234;-80
2023/07/25 13:20:47;;;;;;;6.23;2.90;;;22.10;51.20;;;;;;6234469;28;20231;-80
2023/07/25 13:23:50;;;;;;;3.57;3.07;;;22.30;51.50;;;;;;6228762;28;20231;-79
2023/07/25 13:26:53;;;;;;;3.50;2.80;;;22.40;51.00;;;;;;6237046;28;20338;-79
2023/07/25 13:29:58;;;;;;;2.87;2.70;;;22.60;51.30;;;;;;6227574;28;20238;-78
2023/07/25 13:33:01;;;;;;;2.97;2.53;;;22.50;50.90;;;;;;6233079;28;20236;-81
2023/07/25 13:36:05;;;;;;;3.00;2.80;;;22.10;51.10;;;;;;6252933;28;20234;-80
2023/07/25 13:39:08;;;;;;;2.50;2.40;;;21.90;51.00;;;;;;6220041;28;20261;-79
2023/07/25 13:42:11;;;;;;;2.70;2.50;;;22.00;50.10;;;;;;6243099;28;20237;-80
2023/07/25 13:45:15;;;;;;;2.43;2.33;;;21.90;49.90;;;;;;6228837;28;20230;-80
2023/07/25 13:48:18;;;;;;;2.60;2.50;;;22.00;50.20;;;;;;6239948;28;20227;-80
2023/07/25 13:51:22;;;;;;;2.57;2.37;;;22.00;49.80;;;;;;6254710;28;20257;-79
2023/07/25 13:54:25;;;;;;;2.50;2.23;;;21.90;48.70;;;;;;6245158;28;20245;-79
2023/07/25 13:57:28;;;;;;;3.60;2.60;;;21.70;49.70;;;;;;6240306;28;20316;-77
2023/07/25 14:00:37;;;;;;;2.60;2.37;;;22.00;49.30;;;;;;6246093;28;20239;-79
2023/07/25 14:03:41;;;;;;;2.27;2.17;;;22.30;49.10;;;;;;6234575;28;20230;-77
2023/07/25 14:06:44;;;;;;;2.70;2.60;;;22.50;48.70;;;;;;6236922;28;20282;-77
2023/07/25 14:09:47;;;;;;;2.50;2.40;;;22.70;47.90;;;;;;6239397;28;20419;-79
2023/07/25 14:12:50;;;;;;;2.40;2.30;;;22.50;49.20;;;;;;6231740;28;20249;-81
2023/07/25 14:15:56;;;;;;;2.77;2.10;;;22.70;48.30;;;;;;6220613;28;20250;-79
2023/07/25 14:18:59;;;;;;;2.73;2.20;;;22.20;47.80;;;;;;6241991;28;20234;-81
2023/07/25 14:22:02;;;;;;;2.87;2.50;;;22.50;46.20;;;;;;6235841;28;20249;-78
2023/07/25 14:25:06;;;;;;;1.97;1.97;;;22.80;46.80;;;;;;6236075;28;20288;-79
2023/07/25 14:28:09;;;;;;;2.50;2.40;;;23.10;45.50;;;;;;6245564;28;20261;-79
2023/07/25 14:31:13;;;;;;;3.70;2.90;;;23.20;44.80;;;;;;6230161;28;20241;-78
2023/07/25 14:34:17;;;;;;;2.53;2.33;;;23.30;46.10;;;;;;6242563;28;20314;-78
2023/07/25 14:37:20;;;;;;;2.50;2.40;;;23.50;46.20;;;;;;6222079;28;20613;-77
2023/07/25 14:40:23;;;;;;;2.80;2.43;;;23.60;45.40;;;;;;6229531;28;20365;-79
2023/07/25 14:43:27;;;;;;;2.27;2.23;;;23.50;45.70;;;;;;6228259;28;20775;-78
2023/07/25 14:46:32;;;;;;;2.30;2.20;;;23.80;45.00;;;;;;6229812;28;20274;-77
2023/07/25 14:49:35;;;;;;;2.57;2.43;;;23.50;45.20;;;;;;6229986;28;20322;-80
2023/07/25 14:52:40;;;;;;;2.93;2.50;;;23.30;45.90;;;;;;6233310;28;20612;-81
2023/07/25 14:55:44;;;;;;;2.30;2.20;;;23.20;46.30;;;;;;6225716;28;20292;-79
2023/07/25 14:58:47;;;;;;;2.30;2.20;;;22.90;47.00;;;;;;6246341;28;20234;-80
2023/07/25 15:01:51;;;;;;;2.80;2.63;;;23.00;47.10;;;;;;6221800;28;20235;-80
2023/07/25 15:04:54;;;;;;;2.23;2.10;;;22.60;47.10;;;;;;6225844;28;20239;-78
2023/07/25 15:07:58;;;;;;;4.27;2.70;;;22.20;47.70;;;;;;6238245;28;20794;-79
2023/07/25 15:11:01;;;;;;;2.50;2.40;;;22.20;48.00;;;;;;6234915;28;20635;-79
2023/07/25 15:14:04;;;;;;;2.63;2.23;;;21.80;48.50;;;;;;6235586;28;20249;-80
2023/07/25 15:17:10;;;;;;;2.00;1.90;;;21.50;49.40;;;;;;6241602;28;20239;-78
2023/07/25 15:20:13;;;;;;;2.67;2.47;;;21.70;48.80;;;;;;6239735;28;20234;-78
2023/07/25 15:23:17;;;;;;;2.00;1.90;;;21.70;48.70;;;;;;6227446;28;20404;-78
2023/07/25 15:26:20;;;;;;;2.20;2.20;;;21.90;48.90;;;;;;6235888;28;20311;-78
2023/07/25 15:29:23;;;;;;;2.33;2.23;;;22.60;48.90;;;;;;6239096;28;20238;-77
2023/07/25 15:32:27;;;;;;;2.80;2.40;;;23.00;47.20;;;;;;6231197;28;20286;-81
2023/07/25 15:35:31;;;;;;;2.23;2.23;;;23.20;48.00;;;;;;6235298;28;20250;-80
2023/07/25 15:38:34;;;;;;;2.30;2.20;;;22.80;47.30;;;;;;6233882;28;20233;-77
2023/07/25 15:41:37;;;;;;;2.50;2.30;;;22.80;47.80;;;;;;6241354;28;20237;-77
2023/07/25 15:44:41;;;;;;;2.83;2.73;;;22.90;48.00;;;;;;6249699;28;20270;-78
2023/07/25 15:47:46;;;;;;;2.53;2.33;;;22.90;48.00;;;;;;6234168;28;20604;-78
2023/07/25 15:50:49;;;;;;;2.30;2.20;;;22.90;48.30;;;;;;6221374;28;20718;-80
2023/07/25 15:53:52;;;;;;;2.90;2.70;;;22.60;48.60;;;;;;6238551;28;20642;-78
2023/07/25 15:56:57;;;;;;;3.40;2.60;;;22.50;48.60;;;;;;6245279;28;20270;-79
2023/07/25 16:00:00;;;;;;;2.63;2.43;;;22.40;48.80;;;;;;6221687;28;20289;-80
2023/07/25 16:03:04;;;;;;;3.13;2.80;;;22.20;49.60;;;;;;6244878;28;20242;-80